sensor_id;sensor_type;location;lat;lon;timestamp;temperature;humidity
31975;DHT22;18500;43.618;1.474;2022-12-28T00:02:05;7.30;95.80
31975;DHT22;18500;43.618;1.474;2022-12-28T00:04:31;7.30;97.90
31975;DHT22;18500;43.618;1.474;2022-12-28T00:06:57;7.30;99.30
31975;DHT22;18500;43.618;1.474;2022-12-28T00:09:23;7.20;99.90
31975;DHT22;18500;43.618;1.474;2022-12-28T00:11:49;7.10;99.90
31975;DHT22;18500;43.618;1.474;2022-12-28T00:14:15;7.10;99.90
31975;DHT22;18500;43.618;1.474;2022-12-28T00:16:41;7.00;99.90
31975;DHT22;18500;43.618;1.474;2022-12-28T00:19:14;7.00;99.90
31975;DHT22;18500;43.618;1.474;2022-12-28T00:21:41;6.90;99.90
31975;DHT22;18500;43.618;1.474;2022-12-28T00:24:18;6.90;99.00
31975;DHT22;18500;43.618;1.474;2022-12-28T00:26:44;6.80;98.70
31975;DHT22;18500;43.618;1.474;2022-12-28T00:29:10;6.80;98.30
31975;DHT22;18500;43.618;1.474;2022-12-28T00:31:36;6.80;99.90
31975;DHT22;18500;43.618;1.474;2022-12-28T00:34:02;6.80;99.90
31975;DHT22;18500;43.618;1.474;2022-12-28T00:36:29;6.70;96.80
31975;DHT22;18500;43.618;1.474;2022-12-28T00:38:54;6.80;97.40
31975;DHT22;18500;43.618;1.474;2022-12-28T00:41:20;6.70;97.00
31975;DHT22;18500;43.618;1.474;2022-12-28T00:43:46;6.70;96.00
31975;DHT22;18500;43.618;1.474;2022-12-28T00:46:11;6.70;96.70
31975;DHT22;18500;43.618;1.474;2022-12-28T00:48:37;6.70;97.50
31975;DHT22;18500;43.618;1.474;2022-12-28T00:51:09;6.50;90.80
31975;DHT22;18500;43.618;1.474;2022-12-28T00:53:35;6.50;83.80
31975;DHT22;18500;43.618;1.474;2022-12-28T00:56:12;6.40;77.90
31975;DHT22;18500;43.618;1.474;2022-12-28T00:58:38;6.40;74.80
31975;DHT22;18500;43.618;1.474;2022-12-28T01:01:05;6.40;70.40
31975;DHT22;18500;43.618;1.474;2022-12-28T01:03:31;6.50;66.60
31975;DHT22;18500;43.618;1.474;2022-12-28T01:05:57;6.50;64.70
31975;DHT22;18500;43.618;1.474;2022-12-28T01:08:23;6.60;58.10
31975;DHT22;18500;43.618;1.474;2022-12-28T01:10:48;6.60;59.60
31975;DHT22;18500;43.618;1.474;2022-12-28T01:13:14;6.50;54.70
31975;DHT22;18500;43.618;1.474;2022-12-28T01:15:40;6.50;57.20
31975;DHT22;18500;43.618;1.474;2022-12-28T01:18:05;6.50;61.00
31975;DHT22;18500;43.618;1.474;2022-12-28T01:20:31;6.60;63.40
31975;DHT22;18500;43.618;1.474;2022-12-28T01:22:57;6.70;61.10
31975;DHT22;18500;43.618;1.474;2022-12-28T01:25:23;6.80;60.70
31975;DHT22;18500;43.618;1.474;2022-12-28T01:27:48;6.90;69.70
31975;DHT22;18500;43.618;1.474;2022-12-28T01:30:14;7.00;70.20
31975;DHT22;18500;43.618;1.474;2022-12-28T01:32:40;7.00;66.60
31975;DHT22;18500;43.618;1.474;2022-12-28T01:35:07;6.90;48.20
31975;DHT22;18500;43.618;1.474;2022-12-28T01:37:32;6.90;42.40
31975;DHT22;18500;43.618;1.474;2022-12-28T01:39:59;6.80;39.00
31975;DHT22;18500;43.618;1.474;2022-12-28T01:42:25;6.80;37.80
31975;DHT22;18500;43.618;1.474;2022-12-28T01:44:51;6.80;34.80
31975;DHT22;18500;43.618;1.474;2022-12-28T01:47:20;6.90;36.20
31975;DHT22;18500;43.618;1.474;2022-12-28T01:49:48;7.00;48.00
31975;DHT22;18500;43.618;1.474;2022-12-28T01:57:14;7.20;51.90
31975;DHT22;18500;43.618;1.474;2022-12-28T01:59:43;7.20;52.00
31975;DHT22;18500;43.618;1.474;2022-12-28T02:02:10;7.30;50.90
31975;DHT22;18500;43.618;1.474;2022-12-28T02:04:37;7.30;50.80
31975;DHT22;18500;43.618;1.474;2022-12-28T02:07:02;7.30;51.10
31975;DHT22;18500;43.618;1.474;2022-12-28T02:09:33;7.30;52.10
31975;DHT22;18500;43.618;1.474;2022-12-28T02:12:01;7.30;52.00
31975;DHT22;18500;43.618;1.474;2022-12-28T02:14:27;7.40;52.00
31975;DHT22;18500;43.618;1.474;2022-12-28T02:16:54;7.30;51.30
31975;DHT22;18500;43.618;1.474;2022-12-28T02:30:33;7.20;53.90
31975;DHT22;18500;43.618;1.474;2022-12-28T02:33:29;7.10;56.60
31975;DHT22;18500;43.618;1.474;2022-12-28T02:36:00;7.00;60.00
31975;DHT22;18500;43.618;1.474;2022-12-28T02:38:41;6.90;61.40
31975;DHT22;18500;43.618;1.474;2022-12-28T02:41:15;6.80;65.50
31975;DHT22;18500;43.618;1.474;2022-12-28T02:43:43;6.80;69.20
31975;DHT22;18500;43.618;1.474;2022-12-28T02:46:17;6.70;73.40
31975;DHT22;18500;43.618;1.474;2022-12-28T03:00:28;6.50;86.10
31975;DHT22;18500;43.618;1.474;2022-12-28T03:09:12;6.40;95.50
31975;DHT22;18500;43.618;1.474;2022-12-28T03:12:01;6.40;99.90
31975;DHT22;18500;43.618;1.474;2022-12-28T03:14:58;6.40;99.90
31975;DHT22;18500;43.618;1.474;2022-12-28T03:17:30;6.40;99.90
31975;DHT22;18500;43.618;1.474;2022-12-28T03:20:23;6.40;99.90
31975;DHT22;18500;43.618;1.474;2022-12-28T03:23:11;6.20;99.60
31975;DHT22;18500;43.618;1.474;2022-12-28T03:25:58;6.20;96.50
31975;DHT22;18500;43.618;1.474;2022-12-28T03:28:45;6.10;93.00
31975;DHT22;18500;43.618;1.474;2022-12-28T03:31:31;6.10;94.30
31975;DHT22;18500;43.618;1.474;2022-12-28T03:33:59;6.00;93.80
31975;DHT22;18500;43.618;1.474;2022-12-28T03:39:41;5.90;85.70
31975;DHT22;18500;43.618;1.474;2022-12-28T03:45:10;5.70;79.10
31975;DHT22;18500;43.618;1.474;2022-12-28T03:47:38;5.70;80.90
31975;DHT22;18500;43.618;1.474;2022-12-28T03:50:05;5.60;79.70
31975;DHT22;18500;43.618;1.474;2022-12-28T03:52:32;5.60;93.70
31975;DHT22;18500;43.618;1.474;2022-12-28T03:54:58;5.50;78.40
31975;DHT22;18500;43.618;1.474;2022-12-28T03:57:23;5.60;89.90
31975;DHT22;18500;43.618;1.474;2022-12-28T03:59:49;5.70;99.90
31975;DHT22;18500;43.618;1.474;2022-12-28T04:02:15;5.70;94.50
31975;DHT22;18500;43.618;1.474;2022-12-28T04:04:40;5.80;97.00
31975;DHT22;18500;43.618;1.474;2022-12-28T04:07:06;5.90;99.90
31975;DHT22;18500;43.618;1.474;2022-12-28T04:09:31;6.00;99.90
31975;DHT22;18500;43.618;1.474;2022-12-28T04:11:57;5.90;99.90
31975;DHT22;18500;43.618;1.474;2022-12-28T04:14:23;5.80;99.40
31975;DHT22;18500;43.618;1.474;2022-12-28T04:16:49;5.70;96.10
31975;DHT22;18500;43.618;1.474;2022-12-28T04:19:14;5.60;94.00
31975;DHT22;18500;43.618;1.474;2022-12-28T04:21:40;5.50;90.70
31975;DHT22;18500;43.618;1.474;2022-12-28T04:24:06;5.50;91.60
31975;DHT22;18500;43.618;1.474;2022-12-28T04:26:31;5.60;94.60
31975;DHT22;18500;43.618;1.474;2022-12-28T04:28:57;5.70;99.90
31975;DHT22;18500;43.618;1.474;2022-12-28T04:31:27;5.70;99.90
31975;DHT22;18500;43.618;1.474;2022-12-28T04:33:56;5.70;99.90
31975;DHT22;18500;43.618;1.474;2022-12-28T04:36:22;5.70;99.90
31975;DHT22;18500;43.618;1.474;2022-12-28T04:38:47;5.80;99.90
31975;DHT22;18500;43.618;1.474;2022-12-28T04:41:13;5.80;99.90
31975;DHT22;18500;43.618;1.474;2022-12-28T04:43:39;5.80;99.90
31975;DHT22;18500;43.618;1.474;2022-12-28T04:46:06;5.70;99.90
31975;DHT22;18500;43.618;1.474;2022-12-28T04:48:33;5.70;99.90
31975;DHT22;18500;43.618;1.474;2022-12-28T04:51:08;5.70;99.90
31975;DHT22;18500;43.618;1.474;2022-12-28T04:53:40;5.70;99.90
31975;DHT22;18500;43.618;1.474;2022-12-28T04:56:07;5.70;99.90
31975;DHT22;18500;43.618;1.474;2022-12-28T04:58:33;5.70;99.90
31975;DHT22;18500;43.618;1.474;2022-12-28T05:01:10;5.70;99.90
31975;DHT22;18500;43.618;1.474;2022-12-28T05:03:38;5.70;99.90
31975;DHT22;18500;43.618;1.474;2022-12-28T05:06:07;5.70;99.90
31975;DHT22;18500;43.618;1.474;2022-12-28T05:08:35;5.60;99.90
31975;DHT22;18500;43.618;1.474;2022-12-28T05:11:02;5.60;99.90
31975;DHT22;18500;43.618;1.474;2022-12-28T05:13:29;5.60;99.90
31975;DHT22;18500;43.618;1.474;2022-12-28T05:15:59;5.50;99.90
31975;DHT22;18500;43.618;1.474;2022-12-28T05:18:24;5.50;99.90
31975;DHT22;18500;43.618;1.474;2022-12-28T05:20:56;5.50;99.90
31975;DHT22;18500;43.618;1.474;2022-12-28T05:23:22;5.50;99.90
31975;DHT22;18500;43.618;1.474;2022-12-28T05:25:52;5.50;99.90
31975;DHT22;18500;43.618;1.474;2022-12-28T05:28:17;5.50;99.90
31975;DHT22;18500;43.618;1.474;2022-12-28T05:30:43;5.50;99.90
31975;DHT22;18500;43.618;1.474;2022-12-28T05:33:09;5.40;99.90
31975;DHT22;18500;43.618;1.474;2022-12-28T05:35:34;5.40;99.90
31975;DHT22;18500;43.618;1.474;2022-12-28T05:38:00;5.50;99.90
31975;DHT22;18500;43.618;1.474;2022-12-28T05:40:25;5.40;99.90
31975;DHT22;18500;43.618;1.474;2022-12-28T05:42:51;5.40;99.90
31975;DHT22;18500;43.618;1.474;2022-12-28T05:45:17;5.30;99.90
31975;DHT22;18500;43.618;1.474;2022-12-28T05:47:42;5.20;91.00
31975;DHT22;18500;43.618;1.474;2022-12-28T05:50:08;5.10;88.00
31975;DHT22;18500;43.618;1.474;2022-12-28T05:52:34;5.00;84.00
31975;DHT22;18500;43.618;1.474;2022-12-28T05:55:01;5.00;79.30
31975;DHT22;18500;43.618;1.474;2022-12-28T05:57:27;4.90;75.30
31975;DHT22;18500;43.618;1.474;2022-12-28T05:59:52;4.80;73.60
31975;DHT22;18500;43.618;1.474;2022-12-28T06:02:18;4.80;74.10
31975;DHT22;18500;43.618;1.474;2022-12-28T06:04:44;4.80;72.80
31975;DHT22;18500;43.618;1.474;2022-12-28T06:07:09;4.70;72.60
31975;DHT22;18500;43.618;1.474;2022-12-28T06:09:35;4.80;78.40
31975;DHT22;18500;43.618;1.474;2022-12-28T06:12:01;4.70;74.90
31975;DHT22;18500;43.618;1.474;2022-12-28T06:14:29;4.70;71.60
31975;DHT22;18500;43.618;1.474;2022-12-28T06:16:55;4.70;75.20
31975;DHT22;18500;43.618;1.474;2022-12-28T06:19:20;4.70;71.40
31975;DHT22;18500;43.618;1.474;2022-12-28T06:21:46;4.60;70.10
31975;DHT22;18500;43.618;1.474;2022-12-28T06:24:12;4.70;73.10
31975;DHT22;18500;43.618;1.474;2022-12-28T06:26:39;4.60;76.00
31975;DHT22;18500;43.618;1.474;2022-12-28T06:29:06;4.60;74.20
31975;DHT22;18500;43.618;1.474;2022-12-28T06:31:37;4.70;83.40
31975;DHT22;18500;43.618;1.474;2022-12-28T06:34:05;4.80;87.50
31975;DHT22;18500;43.618;1.474;2022-12-28T06:36:37;4.90;89.80
31975;DHT22;18500;43.618;1.474;2022-12-28T06:39:05;5.00;94.70
31975;DHT22;18500;43.618;1.474;2022-12-28T06:41:32;5.10;98.40
31975;DHT22;18500;43.618;1.474;2022-12-28T06:43:58;5.10;99.90
31975;DHT22;18500;43.618;1.474;2022-12-28T06:46:26;5.10;99.90
31975;DHT22;18500;43.618;1.474;2022-12-28T06:48:52;5.10;99.90
31975;DHT22;18500;43.618;1.474;2022-12-28T06:51:20;5.30;99.90
31975;DHT22;18500;43.618;1.474;2022-12-28T06:53:47;5.40;99.90
31975;DHT22;18500;43.618;1.474;2022-12-28T06:58:44;5.50;99.90
31975;DHT22;18500;43.618;1.474;2022-12-28T07:01:21;5.60;99.90
31975;DHT22;18500;43.618;1.474;2022-12-28T07:03:49;5.50;99.90
31975;DHT22;18500;43.618;1.474;2022-12-28T07:06:17;5.60;99.90
31975;DHT22;18500;43.618;1.474;2022-12-28T07:08:43;5.70;99.90
31975;DHT22;18500;43.618;1.474;2022-12-28T07:11:20;5.70;99.90
31975;DHT22;18500;43.618;1.474;2022-12-28T07:13:46;5.80;99.90
31975;DHT22;18500;43.618;1.474;2022-12-28T07:16:15;5.80;99.90
31975;DHT22;18500;43.618;1.474;2022-12-28T07:18:41;5.80;99.90
31975;DHT22;18500;43.618;1.474;2022-12-28T07:21:10;5.90;99.90
31975;DHT22;18500;43.618;1.474;2022-12-28T07:23:36;5.90;99.90
31975;DHT22;18500;43.618;1.474;2022-12-28T07:26:10;6.10;99.90
31975;DHT22;18500;43.618;1.474;2022-12-28T07:28:38;6.10;99.90
31975;DHT22;18500;43.618;1.474;2022-12-28T07:31:08;6.20;99.90
31975;DHT22;18500;43.618;1.474;2022-12-28T07:33:35;6.30;99.90
31975;DHT22;18500;43.618;1.474;2022-12-28T07:36:02;6.30;99.90
31975;DHT22;18500;43.618;1.474;2022-12-28T07:38:28;6.30;99.90
31975;DHT22;18500;43.618;1.474;2022-12-28T07:41:04;6.40;99.90
31975;DHT22;18500;43.618;1.474;2022-12-28T07:43:30;6.40;99.90
31975;DHT22;18500;43.618;1.474;2022-12-28T07:46:03;6.50;99.90
31975;DHT22;18500;43.618;1.474;2022-12-28T07:48:34;6.40;99.90
31975;DHT22;18500;43.618;1.474;2022-12-28T07:51:08;6.40;99.90
31975;DHT22;18500;43.618;1.474;2022-12-28T07:53:35;6.40;99.90
31975;DHT22;18500;43.618;1.474;2022-12-28T07:56:02;6.50;99.90
31975;DHT22;18500;43.618;1.474;2022-12-28T07:58:27;6.50;99.90
31975;DHT22;18500;43.618;1.474;2022-12-28T08:00:53;6.50;99.90
31975;DHT22;18500;43.618;1.474;2022-12-28T08:03:19;6.60;99.90
31975;DHT22;18500;43.618;1.474;2022-12-28T08:05:45;6.60;99.90
31975;DHT22;18500;43.618;1.474;2022-12-28T08:08:10;6.70;99.90
31975;DHT22;18500;43.618;1.474;2022-12-28T08:10:36;6.70;99.90
31975;DHT22;18500;43.618;1.474;2022-12-28T08:13:02;6.70;99.90
31975;DHT22;18500;43.618;1.474;2022-12-28T08:15:28;6.70;99.90
31975;DHT22;18500;43.618;1.474;2022-12-28T08:17:54;6.60;99.90
31975;DHT22;18500;43.618;1.474;2022-12-28T08:20:21;6.80;99.90
31975;DHT22;18500;43.618;1.474;2022-12-28T08:22:47;6.80;99.90
31975;DHT22;18500;43.618;1.474;2022-12-28T08:25:12;6.80;99.90
31975;DHT22;18500;43.618;1.474;2022-12-28T08:27:38;6.80;99.90
31975;DHT22;18500;43.618;1.474;2022-12-28T08:30:04;6.90;99.90
31975;DHT22;18500;43.618;1.474;2022-12-28T08:32:30;7.10;99.90
31975;DHT22;18500;43.618;1.474;2022-12-28T08:34:56;7.10;99.90
31975;DHT22;18500;43.618;1.474;2022-12-28T08:37:22;7.00;99.90
31975;DHT22;18500;43.618;1.474;2022-12-28T08:39:47;7.00;99.90
31975;DHT22;18500;43.618;1.474;2022-12-28T08:42:13;7.10;99.90
31975;DHT22;18500;43.618;1.474;2022-12-28T08:44:38;7.20;99.90
31975;DHT22;18500;43.618;1.474;2022-12-28T08:47:04;7.10;99.90
31975;DHT22;18500;43.618;1.474;2022-12-28T08:49:30;7.00;99.90
31975;DHT22;18500;43.618;1.474;2022-12-28T08:51:56;7.00;99.90
31975;DHT22;18500;43.618;1.474;2022-12-28T08:54:22;7.10;99.90
31975;DHT22;18500;43.618;1.474;2022-12-28T08:56:47;7.10;99.90
31975;DHT22;18500;43.618;1.474;2022-12-28T08:59:16;7.10;99.90
31975;DHT22;18500;43.618;1.474;2022-12-28T09:01:44;7.10;99.90
31975;DHT22;18500;43.618;1.474;2022-12-28T09:04:20;7.10;99.90
31975;DHT22;18500;43.618;1.474;2022-12-28T09:06:47;7.20;99.90
31975;DHT22;18500;43.618;1.474;2022-12-28T09:09:14;7.30;99.90
31975;DHT22;18500;43.618;1.474;2022-12-28T09:11:41;7.50;99.90
31975;DHT22;18500;43.618;1.474;2022-12-28T09:14:10;7.60;99.90
31975;DHT22;18500;43.618;1.474;2022-12-28T09:16:37;7.70;99.90
31975;DHT22;18500;43.618;1.474;2022-12-28T09:19:05;7.80;99.90
31975;DHT22;18500;43.618;1.474;2022-12-28T09:21:34;8.00;99.90
31975;DHT22;18500;43.618;1.474;2022-12-28T09:24:00;8.00;99.90
31975;DHT22;18500;43.618;1.474;2022-12-28T09:26:28;8.20;99.90
31975;DHT22;18500;43.618;1.474;2022-12-28T09:28:58;8.30;99.90
31975;DHT22;18500;43.618;1.474;2022-12-28T09:31:27;8.40;99.90
31975;DHT22;18500;43.618;1.474;2022-12-28T09:33:53;8.50;99.90
31975;DHT22;18500;43.618;1.474;2022-12-28T09:36:46;8.60;99.90
31975;DHT22;18500;43.618;1.474;2022-12-28T09:39:13;8.70;99.90
31975;DHT22;18500;43.618;1.474;2022-12-28T09:49:32;9.40;57.00
31975;DHT22;18500;43.618;1.474;2022-12-28T09:52:25;9.50;50.60
31975;DHT22;18500;43.618;1.474;2022-12-28T09:54:52;9.70;42.30
31975;DHT22;18500;43.618;1.474;2022-12-28T09:57:19;9.70;37.60
31975;DHT22;18500;43.618;1.474;2022-12-28T09:59:47;9.70;30.40
31975;DHT22;18500;43.618;1.474;2022-12-28T10:02:26;9.80;26.70
31975;DHT22;18500;43.618;1.474;2022-12-28T10:04:54;9.90;24.40
31975;DHT22;18500;43.618;1.474;2022-12-28T10:07:20;9.90;23.40
31975;DHT22;18500;43.618;1.474;2022-12-28T10:09:46;9.90;20.60
31975;DHT22;18500;43.618;1.474;2022-12-28T10:12:15;10.00;17.20
31975;DHT22;18500;43.618;1.474;2022-12-28T10:14:44;10.00;16.20
31975;DHT22;18500;43.618;1.474;2022-12-28T10:17:12;10.10;15.00
31975;DHT22;18500;43.618;1.474;2022-12-28T10:19:38;10.10;13.50
31975;DHT22;18500;43.618;1.474;2022-12-28T10:22:07;10.20;13.20
31975;DHT22;18500;43.618;1.474;2022-12-28T10:24:35;10.10;12.30
31975;DHT22;18500;43.618;1.474;2022-12-28T10:27:04;10.10;12.60
31975;DHT22;18500;43.618;1.474;2022-12-28T10:29:32;10.20;13.20
31975;DHT22;18500;43.618;1.474;2022-12-28T10:32:01;10.20;12.20
31975;DHT22;18500;43.618;1.474;2022-12-28T10:34:29;10.20;12.90
31975;DHT22;18500;43.618;1.474;2022-12-28T10:37:02;10.30;12.10
31975;DHT22;18500;43.618;1.474;2022-12-28T10:39:29;10.30;11.20
31975;DHT22;18500;43.618;1.474;2022-12-28T10:41:57;10.40;11.20
31975;DHT22;18500;43.618;1.474;2022-12-28T10:44:33;10.50;10.10
31975;DHT22;18500;43.618;1.474;2022-12-28T10:47:04;10.50;10.60
31975;DHT22;18500;43.618;1.474;2022-12-28T10:49:33;10.60;10.00
31975;DHT22;18500;43.618;1.474;2022-12-28T10:52:00;10.70;8.70
31975;DHT22;18500;43.618;1.474;2022-12-28T10:54:31;10.80;8.50
31975;DHT22;18500;43.618;1.474;2022-12-28T10:56:57;10.90;8.20
31975;DHT22;18500;43.618;1.474;2022-12-28T10:59:25;10.90;6.80
31975;DHT22;18500;43.618;1.474;2022-12-28T11:01:53;10.90;5.30
31975;DHT22;18500;43.618;1.474;2022-12-28T11:04:21;10.90;4.10
31975;DHT22;18500;43.618;1.474;2022-12-28T11:06:56;11.00;4.00
31975;DHT22;18500;43.618;1.474;2022-12-28T11:09:28;11.10;2.30
31975;DHT22;18500;43.618;1.474;2022-12-28T11:12:14;11.10;2.00
31975;DHT22;18500;43.618;1.474;2022-12-28T11:14:40;11.20;1.50
31975;DHT22;18500;43.618;1.474;2022-12-28T11:19:39;11.50;11.10
31975;DHT22;18500;43.618;1.474;2022-12-28T11:22:11;11.50;1.00
31975;DHT22;18500;43.618;1.474;2022-12-28T11:24:38;11.60;1.00
31975;DHT22;18500;43.618;1.474;2022-12-28T11:27:04;11.50;1.00
31975;DHT22;18500;43.618;1.474;2022-12-28T11:29:30;11.80;1.00
31975;DHT22;18500;43.618;1.474;2022-12-28T11:32:07;11.70;1.00
31975;DHT22;18500;43.618;1.474;2022-12-28T11:34:40;11.60;1.00
31975;DHT22;18500;43.618;1.474;2022-12-28T11:37:12;11.60;1.00
31975;DHT22;18500;43.618;1.474;2022-12-28T11:39:42;11.70;1.00
31975;DHT22;18500;43.618;1.474;2022-12-28T11:42:09;11.80;1.00
31975;DHT22;18500;43.618;1.474;2022-12-28T11:49:35;12.10;1.00
31975;DHT22;18500;43.618;1.474;2022-12-28T11:54:54;12.20;1.00
31975;DHT22;18500;43.618;1.474;2022-12-28T11:57:37;12.30;1.00
31975;DHT22;18500;43.618;1.474;2022-12-28T12:02:50;12.40;1.00
31975;DHT22;18500;43.618;1.474;2022-12-28T12:10:44;12.60;1.00
31975;DHT22;18500;43.618;1.474;2022-12-28T12:16:00;12.60;1.00
31975;DHT22;18500;43.618;1.474;2022-12-28T12:18:44;12.70;1.00
31975;DHT22;18500;43.618;1.474;2022-12-28T12:21:23;12.70;1.00
31975;DHT22;18500;43.618;1.474;2022-12-28T12:23:56;12.80;1.00
31975;DHT22;18500;43.618;1.474;2022-12-28T12:26:32;12.80;1.00
31975;DHT22;18500;43.618;1.474;2022-12-28T12:29:05;12.70;1.00
31975;DHT22;18500;43.618;1.474;2022-12-28T12:31:37;12.70;1.00
31975;DHT22;18500;43.618;1.474;2022-12-28T12:37:11;12.80;1.00
31975;DHT22;18500;43.618;1.474;2022-12-28T12:48:13;13.00;1.00
31975;DHT22;18500;43.618;1.474;2022-12-28T12:53:31;13.00;1.00
31975;DHT22;18500;43.618;1.474;2022-12-28T12:56:17;13.10;1.00
31975;DHT22;18500;43.618;1.474;2022-12-28T12:59:14;13.20;1.00
31975;DHT22;18500;43.618;1.474;2022-12-28T13:04:27;13.10;1.00
31975;DHT22;18500;43.618;1.474;2022-12-28T13:06:59;13.20;1.00
31975;DHT22;18500;43.618;1.474;2022-12-28T13:09:27;13.20;1.00
31975;DHT22;18500;43.618;1.474;2022-12-28T13:11:54;13.20;1.00
31975;DHT22;18500;43.618;1.474;2022-12-28T13:14:22;13.10;1.00
31975;DHT22;18500;43.618;1.474;2022-12-28T13:16:58;13.20;1.00
31975;DHT22;18500;43.618;1.474;2022-12-28T13:19:27;13.20;1.00
31975;DHT22;18500;43.618;1.474;2022-12-28T13:21:54;13.20;1.00
31975;DHT22;18500;43.618;1.474;2022-12-28T13:24:24;13.30;1.00
31975;DHT22;18500;43.618;1.474;2022-12-28T13:26:50;13.20;1.00
31975;DHT22;18500;43.618;1.474;2022-12-28T13:29:19;13.20;1.00
31975;DHT22;18500;43.618;1.474;2022-12-28T13:31:46;13.20;1.00
31975;DHT22;18500;43.618;1.474;2022-12-28T13:36:53;13.20;1.00
31975;DHT22;18500;43.618;1.474;2022-12-28T13:39:21;13.20;1.00
31975;DHT22;18500;43.618;1.474;2022-12-28T13:41:53;13.20;1.00
31975;DHT22;18500;43.618;1.474;2022-12-28T13:44:36;13.20;1.00
31975;DHT22;18500;43.618;1.474;2022-12-28T13:47:29;13.30;1.00
31975;DHT22;18500;43.618;1.474;2022-12-28T13:49:59;13.30;1.00
31975;DHT22;18500;43.618;1.474;2022-12-28T13:52:33;13.20;1.00
31975;DHT22;18500;43.618;1.474;2022-12-28T13:55:04;13.30;1.00
31975;DHT22;18500;43.618;1.474;2022-12-28T13:57:31;13.20;1.00
31975;DHT22;18500;43.618;1.474;2022-12-28T13:59:59;13.20;1.00
31975;DHT22;18500;43.618;1.474;2022-12-28T14:02:25;13.20;1.00
31975;DHT22;18500;43.618;1.474;2022-12-28T14:04:53;13.30;1.00
31975;DHT22;18500;43.618;1.474;2022-12-28T14:07:20;13.30;1.00
31975;DHT22;18500;43.618;1.474;2022-12-28T14:09:47;13.30;1.00
31975;DHT22;18500;43.618;1.474;2022-12-28T14:12:13;13.30;1.00
31975;DHT22;18500;43.618;1.474;2022-12-28T14:14:41;13.30;1.00
31975;DHT22;18500;43.618;1.474;2022-12-28T14:17:07;13.30;1.00
31975;DHT22;18500;43.618;1.474;2022-12-28T14:19:36;13.30;1.00
31975;DHT22;18500;43.618;1.474;2022-12-28T14:22:22;13.30;1.00
31975;DHT22;18500;43.618;1.474;2022-12-28T14:25:03;13.20;1.00
31975;DHT22;18500;43.618;1.474;2022-12-28T14:27:29;13.30;1.00
31975;DHT22;18500;43.618;1.474;2022-12-28T14:29:56;13.30;1.00
31975;DHT22;18500;43.618;1.474;2022-12-28T14:32:23;13.30;1.00
31975;DHT22;18500;43.618;1.474;2022-12-28T14:34:56;13.20;1.00
31975;DHT22;18500;43.618;1.474;2022-12-28T14:37:27;13.20;1.00
31975;DHT22;18500;43.618;1.474;2022-12-28T14:39:58;13.20;1.00
31975;DHT22;18500;43.618;1.474;2022-12-28T14:42:24;13.20;1.00
31975;DHT22;18500;43.618;1.474;2022-12-28T14:44:50;13.20;1.00
31975;DHT22;18500;43.618;1.474;2022-12-28T14:47:41;13.20;1.00
31975;DHT22;18500;43.618;1.474;2022-12-28T14:50:24;13.20;1.00
31975;DHT22;18500;43.618;1.474;2022-12-28T14:58:03;13.20;1.00
31975;DHT22;18500;43.618;1.474;2022-12-28T15:00:32;12.90;1.00
31975;DHT22;18500;43.618;1.474;2022-12-28T15:03:19;13.00;1.00
31975;DHT22;18500;43.618;1.474;2022-12-28T15:05:50;12.90;1.00
31975;DHT22;18500;43.618;1.474;2022-12-28T15:08:17;12.80;1.00
31975;DHT22;18500;43.618;1.474;2022-12-28T15:10:47;12.70;1.00
31975;DHT22;18500;43.618;1.474;2022-12-28T15:13:14;12.80;1.00
31975;DHT22;18500;43.618;1.474;2022-12-28T15:15:40;12.80;1.00
31975;DHT22;18500;43.618;1.474;2022-12-28T15:18:06;12.50;1.00
31975;DHT22;18500;43.618;1.474;2022-12-28T15:20:35;12.50;1.00
31975;DHT22;18500;43.618;1.474;2022-12-28T15:23:00;12.50;1.00
31975;DHT22;18500;43.618;1.474;2022-12-28T15:25:26;12.60;1.00
31975;DHT22;18500;43.618;1.474;2022-12-28T15:27:52;12.50;1.00
31975;DHT22;18500;43.618;1.474;2022-12-28T15:30:19;12.50;1.00
31975;DHT22;18500;43.618;1.474;2022-12-28T15:32:45;12.30;1.00
31975;DHT22;18500;43.618;1.474;2022-12-28T15:35:11;12.30;1.00
31975;DHT22;18500;43.618;1.474;2022-12-28T15:37:37;12.20;1.00
31975;DHT22;18500;43.618;1.474;2022-12-28T15:40:03;12.00;1.00
31975;DHT22;18500;43.618;1.474;2022-12-28T15:42:29;11.90;1.00
31975;DHT22;18500;43.618;1.474;2022-12-28T15:44:55;12.00;1.00
31975;DHT22;18500;43.618;1.474;2022-12-28T15:47:21;11.90;1.00
31975;DHT22;18500;43.618;1.474;2022-12-28T15:49:47;11.90;1.00
31975;DHT22;18500;43.618;1.474;2022-12-28T15:52:13;11.80;1.00
31975;DHT22;18500;43.618;1.474;2022-12-28T15:54:38;11.50;1.00
31975;DHT22;18500;43.618;1.474;2022-12-28T15:57:04;11.40;1.00
31975;DHT22;18500;43.618;1.474;2022-12-28T15:59:30;11.10;1.00
31975;DHT22;18500;43.618;1.474;2022-12-28T16:01:55;11.30;1.00
31975;DHT22;18500;43.618;1.474;2022-12-28T16:04:21;11.20;1.00
31975;DHT22;18500;43.618;1.474;2022-12-28T16:06:47;11.00;1.00
31975;DHT22;18500;43.618;1.474;2022-12-28T16:09:13;10.80;1.00
31975;DHT22;18500;43.618;1.474;2022-12-28T16:11:39;10.60;1.00
31975;DHT22;18500;43.618;1.474;2022-12-28T16:14:06;10.80;1.00
31975;DHT22;18500;43.618;1.474;2022-12-28T16:16:35;10.90;1.00
31975;DHT22;18500;43.618;1.474;2022-12-28T16:19:02;10.80;1.00
31975;DHT22;18500;43.618;1.474;2022-12-28T16:21:28;10.90;1.00
31975;DHT22;18500;43.618;1.474;2022-12-28T16:23:54;10.80;1.00
31975;DHT22;18500;43.618;1.474;2022-12-28T16:26:21;10.80;1.00
31975;DHT22;18500;43.618;1.474;2022-12-28T16:28:47;10.80;1.00
31975;DHT22;18500;43.618;1.474;2022-12-28T16:31:25;10.70;1.00
31975;DHT22;18500;43.618;1.474;2022-12-28T16:34:05;10.70;1.00
31975;DHT22;18500;43.618;1.474;2022-12-28T16:36:32;10.60;1.00
31975;DHT22;18500;43.618;1.474;2022-12-28T16:38:58;10.60;1.00
31975;DHT22;18500;43.618;1.474;2022-12-28T16:41:24;10.60;1.00
31975;DHT22;18500;43.618;1.474;2022-12-28T16:43:50;10.50;1.00
31975;DHT22;18500;43.618;1.474;2022-12-28T16:46:17;10.60;1.00
31975;DHT22;18500;43.618;1.474;2022-12-28T16:48:43;10.60;1.00
31975;DHT22;18500;43.618;1.474;2022-12-28T16:51:09;10.50;1.00
31975;DHT22;18500;43.618;1.474;2022-12-28T16:53:36;10.40;1.00
31975;DHT22;18500;43.618;1.474;2022-12-28T16:56:03;10.40;1.00
31975;DHT22;18500;43.618;1.474;2022-12-28T16:58:30;10.40;1.00
31975;DHT22;18500;43.618;1.474;2022-12-28T17:00:56;10.40;1.00
31975;DHT22;18500;43.618;1.474;2022-12-28T17:03:22;10.40;1.00
31975;DHT22;18500;43.618;1.474;2022-12-28T17:05:51;10.30;1.00
31975;DHT22;18500;43.618;1.474;2022-12-28T17:08:17;10.30;1.00
31975;DHT22;18500;43.618;1.474;2022-12-28T17:10:44;10.30;1.00
31975;DHT22;18500;43.618;1.474;2022-12-28T17:13:10;10.30;1.00
31975;DHT22;18500;43.618;1.474;2022-12-28T17:15:39;10.20;1.00
31975;DHT22;18500;43.618;1.474;2022-12-28T17:18:05;10.20;1.00
31975;DHT22;18500;43.618;1.474;2022-12-28T17:20:31;10.30;1.00
31975;DHT22;18500;43.618;1.474;2022-12-28T17:22:57;10.20;1.00
31975;DHT22;18500;43.618;1.474;2022-12-28T17:25:23;10.20;1.00
31975;DHT22;18500;43.618;1.474;2022-12-28T17:27:49;10.10;1.00
31975;DHT22;18500;43.618;1.474;2022-12-28T17:30:15;10.10;1.00
31975;DHT22;18500;43.618;1.474;2022-12-28T17:32:40;10.10;1.00